createdAt,value
2022-12-19T00:01:30.252Z,9.95
2022-12-19T00:06:35.954Z,10.26
2022-12-19T00:11:42.164Z,10.27
2022-12-19T00:16:48.583Z,10.44
2022-12-19T00:21:54.811Z,10.83
2022-12-19T00:27:00.907Z,11.19
2022-12-19T00:32:06.609Z,11.01
2022-12-19T00:37:12.663Z,10.88
2022-12-19T00:42:18.796Z,11.19
2022-12-19T00:47:24.850Z,11.54
2022-12-19T00:52:31.032Z,11.59
2022-12-19T00:57:37.381Z,11.34
2022-12-19T01:02:43.732Z,11.66
2022-12-19T01:07:49.667Z,12.12
2022-12-19T01:12:55.975Z,11.89
2022-12-19T01:18:02.126Z,11.66
2022-12-19T01:23:08.377Z,12.03
2022-12-19T01:28:14.804Z,12.52
2022-12-19T01:33:20.836Z,12.08
2022-12-19T01:38:27.227Z,12.23
2022-12-19T01:43:33.575Z,12.33
2022-12-19T01:48:40.398Z,12.46
2022-12-19T01:53:48.856Z,12.95
2022-12-19T01:58:53.930Z,11.79
2022-12-19T02:03:58.282Z,12.34
2022-12-19T02:09:04.516Z,13.31
2022-12-19T02:14:10.760Z,12.56
2022-12-19T02:19:16.835Z,12.74
2022-12-19T02:24:23.023Z,12.56
2022-12-19T02:29:29.186Z,12.66
2022-12-19T02:34:37.872Z,12.58
2022-12-19T02:39:40.995Z,12.89
2022-12-19T02:44:47.143Z,12.67
2022-12-19T02:49:53.239Z,12.86
2022-12-19T02:54:59.506Z,12.46
2022-12-19T03:00:05.761Z,12.24
2022-12-19T03:05:11.972Z,12.39
2022-12-19T03:10:18.062Z,12.01
2022-12-19T03:15:24.247Z,13.09
2022-12-19T03:20:30.398Z,12.01
2022-12-19T03:25:37.354Z,12.18
2022-12-19T03:30:43.485Z,12.12
2022-12-19T03:35:49.644Z,12.02
2022-12-19T03:40:55.710Z,12.12
2022-12-19T03:46:02.004Z,12.33
2022-12-19T03:51:07.995Z,12.13
2022-12-19T03:56:14.196Z,12.01
2022-12-19T04:01:20.386Z,11.74
2022-12-19T04:06:26.464Z,12.11
2022-12-19T04:11:32.859Z,12.01
2022-12-19T04:16:39.037Z,12.05
2022-12-19T04:21:45.097Z,12.47
2022-12-19T04:26:51.397Z,12.21
2022-12-19T04:31:57.452Z,12.58
2022-12-19T04:37:03.690Z,12.42
2022-12-19T04:42:09.812Z,13.08
2022-12-19T04:47:16.027Z,12.86
2022-12-19T04:52:22.098Z,12.85
2022-12-19T04:57:28.257Z,12.85
2022-12-19T05:02:34.697Z,13.14
2022-12-19T05:07:40.694Z,12.97
2022-12-19T05:12:46.805Z,13.48
2022-12-19T05:17:52.995Z,13.37
2022-12-19T05:23:03.134Z,12.91
2022-12-19T05:28:05.268Z,12.75
2022-12-19T05:33:11.407Z,13.10
2022-12-19T05:38:17.720Z,13.46
2022-12-19T05:43:23.787Z,13.31
2022-12-19T05:48:30.096Z,12.68
2022-12-19T05:53:36.260Z,12.90
2022-12-19T05:58:42.438Z,12.77
2022-12-19T06:03:48.674Z,13.12
2022-12-19T06:08:56.268Z,12.94
2022-12-19T06:14:02.368Z,13.86
2022-12-19T06:19:08.730Z,13.43
2022-12-19T06:24:14.881Z,13.48
2022-12-19T06:29:21.167Z,13.16
2022-12-19T06:35:02.158Z,13.39
2022-12-19T06:39:33.237Z,13.93
2022-12-19T06:44:39.299Z,13.49
2022-12-19T06:49:45.480Z,13.66
2022-12-19T06:54:51.704Z,13.54
2022-12-19T06:59:57.832Z,13.87
2022-12-19T07:05:04.648Z,13.66
2022-12-19T07:10:10.849Z,14.03
2022-12-19T07:15:17.045Z,14.10
2022-12-19T07:20:23.183Z,14.32
2022-12-19T07:25:29.268Z,14.51
2022-12-19T07:30:35.540Z,13.66
2022-12-19T07:35:44.623Z,14.02
2022-12-19T07:40:51.004Z,14.39
2022-12-19T07:45:57.100Z,14.16
2022-12-19T07:51:03.218Z,15.34
2022-12-19T07:56:09.273Z,15.27
2022-12-19T08:01:15.171Z,14.10
2022-12-19T08:06:21.233Z,14.16
2022-12-19T08:11:27.565Z,14.67
2022-12-19T08:16:49.262Z,14.60
2022-12-19T08:21:39.262Z,15.19
2022-12-19T08:26:47.715Z,15.07
2022-12-19T08:31:51.162Z,16.04
2022-12-19T08:36:57.423Z,16.10
2022-12-19T08:42:03.627Z,16.66
2022-12-19T08:47:09.739Z,15.68
2022-12-19T08:52:15.883Z,16.40
2022-12-19T08:57:22.042Z,16.60
2022-12-19T09:02:28.470Z,17.11
2022-12-19T09:07:34.410Z,17.02
2022-12-19T09:12:40.157Z,17.30
2022-12-19T09:17:46.266Z,17.09
2022-12-19T09:22:52.073Z,17.65
2022-12-19T09:33:03.869Z,17.26
2022-12-19T09:38:09.984Z,17.78
2022-12-19T09:43:16.200Z,18.00
2022-12-19T09:48:24.027Z,18.02
2022-12-19T09:53:28.350Z,17.99
2022-12-19T09:58:34.512Z,17.22
2022-12-19T10:03:40.993Z,17.22
2022-12-19T10:09:10.046Z,17.71
2022-12-19T10:13:52.514Z,17.19
2022-12-19T10:18:58.682Z,16.16
2022-12-19T10:24:04.899Z,15.91
2022-12-19T10:29:11.044Z,15.10
2022-12-19T10:34:16.925Z,15.17
2022-12-19T10:39:23.011Z,15.09
2022-12-19T10:44:29.207Z,15.04
2022-12-19T10:49:35.255Z,15.06
2022-12-19T10:54:41.458Z,15.30
2022-12-19T10:59:47.495Z,16.40
2022-12-19T11:04:53.878Z,17.49
2022-12-19T11:10:15.844Z,17.45
2022-12-19T11:23:02.720Z,18.55
2022-12-19T11:29:38.360Z,19.05
2022-12-19T11:30:45.508Z,20.57
2022-12-19T11:32:01.805Z,20.57
2022-12-19T11:35:37.125Z,21.07
2022-12-19T11:40:34.020Z,23.11
2022-12-19T11:45:40.085Z,21.79
2022-12-19T11:50:45.797Z,21.82
2022-12-19T11:55:51.829Z,21.88
2022-12-19T12:00:58.029Z,23.25
2022-12-19T12:06:04.248Z,20.56
2022-12-19T12:17:29.830Z,21.88
2022-12-19T12:27:24.191Z,20.35
2022-12-19T12:31:17.816Z,20.83
2022-12-19T12:32:01.908Z,20.75
2022-12-19T12:35:42.530Z,20.16
2022-12-19T12:38:02.501Z,18.90
2022-12-19T12:41:44.634Z,19.05
2022-12-19T12:46:50.799Z,18.58
2022-12-19T12:51:57.004Z,18.95
2022-12-19T12:57:03.402Z,19.43
2022-12-19T13:02:09.866Z,20.88
2022-12-19T13:07:15.818Z,21.39
2022-12-19T13:12:21.911Z,22.08
2022-12-19T13:17:28.102Z,21.12
2022-12-19T13:22:34.310Z,20.87
2022-12-19T13:27:40.706Z,20.74
2022-12-19T13:32:46.926Z,20.82
2022-12-19T13:39:48.075Z,21.90
2022-12-19T13:43:10.395Z,21.55
2022-12-19T13:48:04.412Z,20.82
2022-12-19T13:53:10.486Z,20.68
2022-12-19T13:58:16.749Z,21.71
2022-12-19T14:03:22.523Z,24.18
2022-12-19T14:08:28.640Z,21.49
2022-12-19T14:13:56.526Z,20.38
2022-12-19T14:18:44.157Z,20.01
2022-12-19T14:23:46.246Z,21.30
2022-12-19T14:28:54.768Z,20.74
2022-12-19T14:34:27.124Z,20.45
2022-12-19T14:39:22.762Z,19.41
2022-12-19T14:54:01.798Z,18.52
2022-12-19T14:54:10.031Z,18.65
2022-12-19T14:56:09.322Z,18.38
2022-12-19T14:59:26.742Z,17.69
2022-12-19T15:04:51.550Z,18.57
2022-12-19T15:11:07.708Z,17.98
2022-12-19T15:14:56.455Z,17.29
2022-12-19T15:19:50.045Z,17.09
2022-12-19T15:24:56.208Z,15.60
2022-12-19T15:30:02.388Z,16.15
2022-12-19T15:35:08.543Z,15.22
2022-12-19T15:40:14.836Z,14.52
2022-12-19T15:45:21.007Z,13.73
2022-12-19T15:50:27.170Z,14.00
2022-12-19T15:55:33.250Z,13.35
2022-12-19T16:00:39.485Z,13.51
2022-12-19T16:05:45.744Z,13.02
2022-12-19T16:10:54.641Z,12.86
2022-12-19T16:15:57.596Z,11.94
2022-12-19T16:21:03.711Z,12.49
2022-12-19T16:26:09.872Z,11.08
2022-12-19T16:31:16.280Z,11.50
2022-12-19T16:36:22.241Z,12.09
2022-12-19T16:41:28.442Z,12.27
2022-12-19T16:46:34.595Z,11.85
2022-12-19T16:51:40.290Z,12.54
2022-12-19T16:56:46.342Z,11.81
2022-12-19T17:01:52.793Z,10.82
2022-12-19T17:06:58.700Z,11.43
2022-12-19T17:12:04.988Z,11.09
2022-12-19T17:17:20.652Z,10.73
2022-12-19T17:22:26.812Z,11.05
2022-12-19T17:27:32.909Z,10.81
2022-12-19T17:32:39.311Z,10.36
2022-12-19T17:37:45.392Z,10.23
2022-12-19T17:42:51.732Z,10.03
2022-12-19T17:48:02.547Z,9.99
2022-12-19T17:53:03.484Z,9.96
2022-12-19T17:58:10.025Z,9.40
2022-12-19T18:03:16.325Z,9.69
2022-12-19T18:08:23.051Z,9.07
2022-12-19T18:13:28.794Z,9.05
2022-12-19T18:18:34.967Z,9.11
2022-12-19T18:23:41.160Z,8.87
2022-12-19T18:28:47.308Z,8.54
2022-12-19T18:33:53.811Z,8.22
2022-12-19T18:38:59.971Z,8.14
2022-12-19T18:44:06.189Z,8.49
2022-12-19T18:49:12.358Z,8.43
2022-12-19T18:54:18.872Z,7.70
2022-12-19T18:59:25.823Z,7.77
2022-12-19T19:04:32.085Z,7.60
2022-12-19T19:09:38.217Z,7.45
2022-12-19T19:14:44.551Z,7.26
2022-12-19T19:19:50.618Z,7.09
2022-12-19T19:24:56.857Z,7.26
2022-12-19T19:30:03.009Z,6.83
2022-12-19T19:35:09.218Z,6.70
2022-12-19T19:40:15.288Z,6.75
2022-12-19T19:45:21.445Z,6.30
2022-12-19T19:50:27.690Z,6.71
2022-12-19T19:55:34.218Z,6.74
2022-12-19T20:00:40.345Z,6.12
2022-12-19T20:05:46.489Z,6.12
2022-12-19T20:10:52.599Z,5.96
2022-12-19T20:15:58.833Z,5.95
2022-12-19T20:21:10.726Z,6.59
2022-12-19T20:26:10.643Z,6.46
2022-12-19T20:31:16.857Z,6.22
2022-12-19T20:36:23.126Z,6.07
2022-12-19T20:41:29.590Z,6.05
2022-12-19T20:46:35.927Z,5.86
2022-12-19T20:51:41.932Z,5.89
2022-12-19T20:56:48.428Z,6.00
2022-12-19T21:01:54.715Z,6.06
2022-12-19T21:07:00.832Z,5.75
2022-12-19T21:12:06.919Z,5.87
2022-12-19T21:17:13.060Z,5.53
2022-12-19T21:22:19.205Z,5.82
2022-12-19T21:27:25.527Z,5.49
2022-12-19T21:32:31.685Z,5.55
2022-12-19T21:37:43.265Z,5.48
2022-12-19T21:42:43.639Z,4.94
2022-12-19T21:47:49.949Z,5.49
2022-12-19T21:52:56.147Z,5.18
2022-12-19T21:58:02.613Z,4.86
2022-12-19T22:03:14.583Z,5.28
2022-12-19T22:08:14.942Z,5.29
2022-12-19T22:13:21.024Z,5.10
2022-12-19T22:18:27.270Z,5.13
2022-12-19T22:23:34.108Z,5.03
2022-12-19T22:28:40.227Z,5.02
2022-12-19T22:33:46.293Z,5.03
2022-12-19T22:38:52.575Z,4.97
2022-12-19T22:43:58.736Z,4.72
2022-12-19T22:49:04.956Z,4.83
2022-12-19T22:54:11.149Z,4.79
2022-12-19T22:59:17.350Z,4.68
2022-12-19T23:04:24.438Z,5.08
2022-12-19T23:09:30.444Z,4.78
2022-12-19T23:14:36.527Z,4.76
2022-12-19T23:19:42.807Z,4.76
2022-12-19T23:24:48.889Z,5.00
2022-12-19T23:29:55.109Z,4.58
2022-12-19T23:35:01.289Z,4.63
2022-12-19T23:40:07.474Z,4.67
2022-12-19T23:45:13.531Z,4.45
2022-12-19T23:50:19.736Z,4.61
2022-12-19T23:55:25.883Z,4.64
